< < Back
Terminal Aerodrome Forecast


Current Version              Previous Versions:   1  2  3  4  5  6  7  8  9  

Terminal Aerodrome Forecast

947
FTUS44 KMOB 082342
TAFMOB
TAF
KMOB 082342Z 0900/0924 30012G18KT P6SM SCT070
     FM090300 29008KT P6SM FEW070
     FM091500 30014G22KT P6SM FEW070=



Latest METAR

920
SAUS80 KWBC 090300 CCA
MTRMOB
METAR KMOB 090256Z 29005KT 10SM CLR 07/M06 A3005 RMK AO2 SLP175
T00671061 51025


USA.gov is the U.S. government's official web portal to all federal, state and local government web resources and services.